TAF KRAP
KRAP 072320Z 0800/0824 VRB05KT P6SM BKN060 FM081800 17014KT P6SM BKN200=
METAR KRAP
WC KRAP
WS KRAP
WV KRAP